sensor_id;sensor_type;location;lat;lon;timestamp;P1;durP1;ratioP1;P2;durP2;ratioP2
11034;SDS011;5571;48.110;-1.706;2023-05-10T00:00:32;18.80;;;3.60;;
11034;SDS011;5571;48.110;-1.706;2023-05-10T00:02:57;14.97;;;3.20;;
11034;SDS011;5571;48.110;-1.706;2023-05-10T00:05:23;12.13;;;2.67;;
11034;SDS011;5571;48.110;-1.706;2023-05-10T00:07:49;15.60;;;3.70;;
11034;SDS011;5571;48.110;-1.706;2023-05-10T00:10:14;12.90;;;3.07;;
11034;SDS011;5571;48.110;-1.706;2023-05-10T00:12:40;17.03;;;3.20;;
11034;SDS011;5571;48.110;-1.706;2023-05-10T00:15:06;14.93;;;3.37;;
11034;SDS011;5571;48.110;-1.706;2023-05-10T00:17:32;13.60;;;3.50;;
11034;SDS011;5571;48.110;-1.706;2023-05-10T00:19:57;13.10;;;2.73;;
11034;SDS011;5571;48.110;-1.706;2023-05-10T00:22:23;14.50;;;3.03;;
11034;SDS011;5571;48.110;-1.706;2023-05-10T00:24:49;16.60;;;3.33;;
11034;SDS011;5571;48.110;-1.706;2023-05-10T00:27:14;15.50;;;3.40;;
11034;SDS011;5571;48.110;-1.706;2023-05-10T00:29:40;14.20;;;3.00;;
11034;SDS011;5571;48.110;-1.706;2023-05-10T00:32:05;14.83;;;3.13;;
11034;SDS011;5571;48.110;-1.706;2023-05-10T00:34:31;15.47;;;3.37;;
11034;SDS011;5571;48.110;-1.706;2023-05-10T00:36:57;18.63;;;3.37;;
11034;SDS011;5571;48.110;-1.706;2023-05-10T00:39:22;13.93;;;3.33;;
11034;SDS011;5571;48.110;-1.706;2023-05-10T00:41:48;12.60;;;3.00;;
11034;SDS011;5571;48.110;-1.706;2023-05-10T00:44:13;17.37;;;3.23;;
11034;SDS011;5571;48.110;-1.706;2023-05-10T00:46:39;18.23;;;3.93;;
11034;SDS011;5571;48.110;-1.706;2023-05-10T00:49:06;19.53;;;3.70;;
11034;SDS011;5571;48.110;-1.706;2023-05-10T00:51:31;16.20;;;3.30;;
11034;SDS011;5571;48.110;-1.706;2023-05-10T00:53:57;20.60;;;4.17;;
11034;SDS011;5571;48.110;-1.706;2023-05-10T00:56:23;15.67;;;3.27;;
11034;SDS011;5571;48.110;-1.706;2023-05-10T00:58:50;17.13;;;3.87;;
11034;SDS011;5571;48.110;-1.706;2023-05-10T01:01:16;21.73;;;3.73;;
11034;SDS011;5571;48.110;-1.706;2023-05-10T01:03:42;14.47;;;3.33;;
11034;SDS011;5571;48.110;-1.706;2023-05-10T01:06:08;16.43;;;3.40;;
11034;SDS011;5571;48.110;-1.706;2023-05-10T01:08:35;21.53;;;4.10;;
11034;SDS011;5571;48.110;-1.706;2023-05-10T01:11:01;15.57;;;3.30;;
11034;SDS011;5571;48.110;-1.706;2023-05-10T01:15:57;25.00;;;3.97;;
11034;SDS011;5571;48.110;-1.706;2023-05-10T01:18:23;15.93;;;3.13;;
11034;SDS011;5571;48.110;-1.706;2023-05-10T01:20:58;22.40;;;3.90;;
11034;SDS011;5571;48.110;-1.706;2023-05-10T01:34:34;19.47;;;3.50;;
11034;SDS011;5571;48.110;-1.706;2023-05-10T01:37:07;18.03;;;3.33;;
11034;SDS011;5571;48.110;-1.706;2023-05-10T01:39:41;25.33;;;3.40;;
11034;SDS011;5571;48.110;-1.706;2023-05-10T01:42:28;18.77;;;3.60;;
11034;SDS011;5571;48.110;-1.706;2023-05-10T01:47:38;19.83;;;3.57;;
11034;SDS011;5571;48.110;-1.706;2023-05-10T01:50:14;24.43;;;4.30;;
11034;SDS011;5571;48.110;-1.706;2023-05-10T01:52:44;14.57;;;3.90;;
11034;SDS011;5571;48.110;-1.706;2023-05-10T01:55:15;15.03;;;3.20;;
11034;SDS011;5571;48.110;-1.706;2023-05-10T01:57:43;16.77;;;3.70;;
11034;SDS011;5571;48.110;-1.706;2023-05-10T02:00:11;14.33;;;3.27;;
11034;SDS011;5571;48.110;-1.706;2023-05-10T02:02:39;18.43;;;3.77;;
11034;SDS011;5571;48.110;-1.706;2023-05-10T02:05:07;18.20;;;3.50;;
11034;SDS011;5571;48.110;-1.706;2023-05-10T02:07:35;23.30;;;3.83;;
11034;SDS011;5571;48.110;-1.706;2023-05-10T02:10:02;16.93;;;3.70;;
11034;SDS011;5571;48.110;-1.706;2023-05-10T02:12:36;25.97;;;7.50;;
11034;SDS011;5571;48.110;-1.706;2023-05-10T02:15:04;24.10;;;5.43;;
11034;SDS011;5571;48.110;-1.706;2023-05-10T02:17:32;17.63;;;4.80;;
11034;SDS011;5571;48.110;-1.706;2023-05-10T02:19:59;27.67;;;5.73;;
11034;SDS011;5571;48.110;-1.706;2023-05-10T02:22:27;21.17;;;5.70;;
11034;SDS011;5571;48.110;-1.706;2023-05-10T02:24:56;16.53;;;3.43;;
11034;SDS011;5571;48.110;-1.706;2023-05-10T02:27:24;23.43;;;4.03;;
11034;SDS011;5571;48.110;-1.706;2023-05-10T02:29:53;15.57;;;3.30;;
11034;SDS011;5571;48.110;-1.706;2023-05-10T02:32:19;16.70;;;3.60;;
11034;SDS011;5571;48.110;-1.706;2023-05-10T02:34:47;23.20;;;4.47;;
11034;SDS011;5571;48.110;-1.706;2023-05-10T02:37:16;26.20;;;4.37;;
11034;SDS011;5571;48.110;-1.706;2023-05-10T02:39:52;23.23;;;3.80;;
11034;SDS011;5571;48.110;-1.706;2023-05-10T02:42:21;21.07;;;4.10;;
11034;SDS011;5571;48.110;-1.706;2023-05-10T02:44:50;25.83;;;4.73;;
11034;SDS011;5571;48.110;-1.706;2023-05-10T02:47:17;22.13;;;3.87;;
11034;SDS011;5571;48.110;-1.706;2023-05-10T02:49:44;19.40;;;3.87;;
11034;SDS011;5571;48.110;-1.706;2023-05-10T02:52:10;21.80;;;4.33;;
11034;SDS011;5571;48.110;-1.706;2023-05-10T02:54:44;20.83;;;4.50;;
11034;SDS011;5571;48.110;-1.706;2023-05-10T02:57:17;17.63;;;3.77;;
11034;SDS011;5571;48.110;-1.706;2023-05-10T02:59:50;20.13;;;4.03;;
11034;SDS011;5571;48.110;-1.706;2023-05-10T03:02:16;21.90;;;4.63;;
11034;SDS011;5571;48.110;-1.706;2023-05-10T03:04:42;28.43;;;5.30;;
11034;SDS011;5571;48.110;-1.706;2023-05-10T03:07:07;16.87;;;3.90;;
11034;SDS011;5571;48.110;-1.706;2023-05-10T03:09:33;21.50;;;4.57;;
11034;SDS011;5571;48.110;-1.706;2023-05-10T03:12:15;25.07;;;4.30;;
11034;SDS011;5571;48.110;-1.706;2023-05-10T03:17:23;20.10;;;4.07;;
11034;SDS011;5571;48.110;-1.706;2023-05-10T03:19:56;24.50;;;4.30;;
11034;SDS011;5571;48.110;-1.706;2023-05-10T03:22:30;30.10;;;4.30;;
11034;SDS011;5571;48.110;-1.706;2023-05-10T03:24:57;19.17;;;4.03;;
11034;SDS011;5571;48.110;-1.706;2023-05-10T03:27:25;19.67;;;4.60;;
11034;SDS011;5571;48.110;-1.706;2023-05-10T03:29:53;25.90;;;4.00;;
11034;SDS011;5571;48.110;-1.706;2023-05-10T03:32:20;15.07;;;3.80;;
11034;SDS011;5571;48.110;-1.706;2023-05-10T03:34:45;21.57;;;4.57;;
11034;SDS011;5571;48.110;-1.706;2023-05-10T03:37:11;20.03;;;3.87;;
11034;SDS011;5571;48.110;-1.706;2023-05-10T03:39:36;19.30;;;4.37;;
11034;SDS011;5571;48.110;-1.706;2023-05-10T03:42:02;23.67;;;4.80;;
11034;SDS011;5571;48.110;-1.706;2023-05-10T03:44:28;22.03;;;4.37;;
11034;SDS011;5571;48.110;-1.706;2023-05-10T03:46:53;23.40;;;4.50;;
11034;SDS011;5571;48.110;-1.706;2023-05-10T03:49:20;23.77;;;4.73;;
11034;SDS011;5571;48.110;-1.706;2023-05-10T03:51:45;27.70;;;4.47;;
11034;SDS011;5571;48.110;-1.706;2023-05-10T03:54:11;19.00;;;4.33;;
11034;SDS011;5571;48.110;-1.706;2023-05-10T03:56:37;19.93;;;4.27;;
11034;SDS011;5571;48.110;-1.706;2023-05-10T03:59:02;22.77;;;4.13;;
11034;SDS011;5571;48.110;-1.706;2023-05-10T04:01:32;24.63;;;4.17;;
11034;SDS011;5571;48.110;-1.706;2023-05-10T04:03:58;23.77;;;4.23;;
11034;SDS011;5571;48.110;-1.706;2023-05-10T04:06:24;27.47;;;4.67;;
11034;SDS011;5571;48.110;-1.706;2023-05-10T04:08:49;22.63;;;4.37;;
11034;SDS011;5571;48.110;-1.706;2023-05-10T04:11:15;28.27;;;4.57;;
11034;SDS011;5571;48.110;-1.706;2023-05-10T04:13:41;23.60;;;4.50;;
11034;SDS011;5571;48.110;-1.706;2023-05-10T04:16:07;18.00;;;4.17;;
11034;SDS011;5571;48.110;-1.706;2023-05-10T04:18:33;23.63;;;4.10;;
11034;SDS011;5571;48.110;-1.706;2023-05-10T04:20:59;23.10;;;4.33;;
11034;SDS011;5571;48.110;-1.706;2023-05-10T04:23:25;26.60;;;4.83;;
11034;SDS011;5571;48.110;-1.706;2023-05-10T04:25:51;23.57;;;4.90;;
11034;SDS011;5571;48.110;-1.706;2023-05-10T04:28:17;21.03;;;4.10;;
11034;SDS011;5571;48.110;-1.706;2023-05-10T04:30:43;18.90;;;4.20;;
11034;SDS011;5571;48.110;-1.706;2023-05-10T04:33:08;19.70;;;4.13;;
11034;SDS011;5571;48.110;-1.706;2023-05-10T04:35:34;24.63;;;4.80;;
11034;SDS011;5571;48.110;-1.706;2023-05-10T04:38:00;16.50;;;3.93;;
11034;SDS011;5571;48.110;-1.706;2023-05-10T04:40:25;20.33;;;4.07;;
11034;SDS011;5571;48.110;-1.706;2023-05-10T04:42:51;19.77;;;4.00;;
11034;SDS011;5571;48.110;-1.706;2023-05-10T04:45:17;22.83;;;3.57;;
11034;SDS011;5571;48.110;-1.706;2023-05-10T04:47:42;22.87;;;4.00;;
11034;SDS011;5571;48.110;-1.706;2023-05-10T04:50:08;15.13;;;3.63;;
11034;SDS011;5571;48.110;-1.706;2023-05-10T04:52:34;25.00;;;4.47;;
11034;SDS011;5571;48.110;-1.706;2023-05-10T04:54:59;18.47;;;4.13;;
11034;SDS011;5571;48.110;-1.706;2023-05-10T04:57:25;16.63;;;4.10;;
11034;SDS011;5571;48.110;-1.706;2023-05-10T04:59:51;18.00;;;3.77;;
11034;SDS011;5571;48.110;-1.706;2023-05-10T05:02:16;18.27;;;4.20;;
11034;SDS011;5571;48.110;-1.706;2023-05-10T05:04:42;26.07;;;4.23;;
11034;SDS011;5571;48.110;-1.706;2023-05-10T05:07:08;21.30;;;4.63;;
11034;SDS011;5571;48.110;-1.706;2023-05-10T05:09:33;20.93;;;4.67;;
11034;SDS011;5571;48.110;-1.706;2023-05-10T05:11:59;18.73;;;4.20;;
11034;SDS011;5571;48.110;-1.706;2023-05-10T05:14:25;20.40;;;5.17;;
11034;SDS011;5571;48.110;-1.706;2023-05-10T05:16:51;22.53;;;3.77;;
11034;SDS011;5571;48.110;-1.706;2023-05-10T05:19:17;26.47;;;4.13;;
11034;SDS011;5571;48.110;-1.706;2023-05-10T05:21:42;16.97;;;4.10;;
11034;SDS011;5571;48.110;-1.706;2023-05-10T05:24:08;21.80;;;4.70;;
11034;SDS011;5571;48.110;-1.706;2023-05-10T05:26:35;21.00;;;4.50;;
11034;SDS011;5571;48.110;-1.706;2023-05-10T05:29:01;24.00;;;4.80;;
11034;SDS011;5571;48.110;-1.706;2023-05-10T05:31:27;26.63;;;5.00;;
11034;SDS011;5571;48.110;-1.706;2023-05-10T05:33:53;21.33;;;4.37;;
11034;SDS011;5571;48.110;-1.706;2023-05-10T05:36:19;17.53;;;4.03;;
11034;SDS011;5571;48.110;-1.706;2023-05-10T05:38:44;21.77;;;4.40;;
11034;SDS011;5571;48.110;-1.706;2023-05-10T05:41:10;20.53;;;4.63;;
11034;SDS011;5571;48.110;-1.706;2023-05-10T05:43:35;19.40;;;4.23;;
11034;SDS011;5571;48.110;-1.706;2023-05-10T05:46:01;24.90;;;4.80;;
11034;SDS011;5571;48.110;-1.706;2023-05-10T05:48:26;23.63;;;5.37;;
11034;SDS011;5571;48.110;-1.706;2023-05-10T05:50:54;23.50;;;5.13;;
11034;SDS011;5571;48.110;-1.706;2023-05-10T05:53:21;22.23;;;4.80;;
11034;SDS011;5571;48.110;-1.706;2023-05-10T05:55:54;17.43;;;4.50;;
11034;SDS011;5571;48.110;-1.706;2023-05-10T05:58:21;21.00;;;4.30;;
11034;SDS011;5571;48.110;-1.706;2023-05-10T06:00:47;18.70;;;3.90;;
11034;SDS011;5571;48.110;-1.706;2023-05-10T06:03:13;21.93;;;4.80;;
11034;SDS011;5571;48.110;-1.706;2023-05-10T06:05:38;20.27;;;4.10;;
11034;SDS011;5571;48.110;-1.706;2023-05-10T06:08:04;23.10;;;4.30;;
11034;SDS011;5571;48.110;-1.706;2023-05-10T06:10:30;24.00;;;4.73;;
11034;SDS011;5571;48.110;-1.706;2023-05-10T06:12:55;30.10;;;4.67;;
11034;SDS011;5571;48.110;-1.706;2023-05-10T06:15:21;23.63;;;4.50;;
11034;SDS011;5571;48.110;-1.706;2023-05-10T06:17:47;20.30;;;4.60;;
11034;SDS011;5571;48.110;-1.706;2023-05-10T06:20:14;15.83;;;3.93;;
11034;SDS011;5571;48.110;-1.706;2023-05-10T06:22:40;18.00;;;3.77;;
11034;SDS011;5571;48.110;-1.706;2023-05-10T06:25:06;22.07;;;4.57;;
11034;SDS011;5571;48.110;-1.706;2023-05-10T06:27:32;25.50;;;4.93;;
11034;SDS011;5571;48.110;-1.706;2023-05-10T06:29:58;23.50;;;5.03;;
11034;SDS011;5571;48.110;-1.706;2023-05-10T06:32:24;22.53;;;4.33;;
11034;SDS011;5571;48.110;-1.706;2023-05-10T06:34:49;26.00;;;4.53;;
11034;SDS011;5571;48.110;-1.706;2023-05-10T06:37:15;25.83;;;4.10;;
11034;SDS011;5571;48.110;-1.706;2023-05-10T06:39:41;20.90;;;3.90;;
11034;SDS011;5571;48.110;-1.706;2023-05-10T06:42:07;24.23;;;4.40;;
11034;SDS011;5571;48.110;-1.706;2023-05-10T06:44:32;22.63;;;4.33;;
11034;SDS011;5571;48.110;-1.706;2023-05-10T06:46:58;23.03;;;4.57;;
11034;SDS011;5571;48.110;-1.706;2023-05-10T06:49:24;25.73;;;4.63;;
11034;SDS011;5571;48.110;-1.706;2023-05-10T06:51:49;21.53;;;3.90;;
11034;SDS011;5571;48.110;-1.706;2023-05-10T06:54:15;24.77;;;4.53;;
11034;SDS011;5571;48.110;-1.706;2023-05-10T06:56:40;25.77;;;3.93;;
11034;SDS011;5571;48.110;-1.706;2023-05-10T06:59:06;18.77;;;4.57;;
11034;SDS011;5571;48.110;-1.706;2023-05-10T07:01:32;23.53;;;4.87;;
11034;SDS011;5571;48.110;-1.706;2023-05-10T07:03:57;22.23;;;3.90;;
11034;SDS011;5571;48.110;-1.706;2023-05-10T07:06:23;22.97;;;4.30;;
11034;SDS011;5571;48.110;-1.706;2023-05-10T07:08:49;20.93;;;4.40;;
11034;SDS011;5571;48.110;-1.706;2023-05-10T07:11:14;20.33;;;4.80;;
11034;SDS011;5571;48.110;-1.706;2023-05-10T07:13:40;20.83;;;4.27;;
11034;SDS011;5571;48.110;-1.706;2023-05-10T07:16:09;19.23;;;4.90;;
11034;SDS011;5571;48.110;-1.706;2023-05-10T07:18:35;18.77;;;3.80;;
11034;SDS011;5571;48.110;-1.706;2023-05-10T07:21:01;19.47;;;4.20;;
11034;SDS011;5571;48.110;-1.706;2023-05-10T07:23:27;18.53;;;3.90;;
11034;SDS011;5571;48.110;-1.706;2023-05-10T07:25:52;20.00;;;4.23;;
11034;SDS011;5571;48.110;-1.706;2023-05-10T07:28:18;11.40;;;3.80;;
11034;SDS011;5571;48.110;-1.706;2023-05-10T07:30:44;25.13;;;4.57;;
11034;SDS011;5571;48.110;-1.706;2023-05-10T07:33:12;18.10;;;4.50;;
11034;SDS011;5571;48.110;-1.706;2023-05-10T07:35:39;17.13;;;4.63;;
11034;SDS011;5571;48.110;-1.706;2023-05-10T07:38:05;25.83;;;4.60;;
11034;SDS011;5571;48.110;-1.706;2023-05-10T07:40:30;20.50;;;4.60;;
11034;SDS011;5571;48.110;-1.706;2023-05-10T07:42:56;16.97;;;3.80;;
11034;SDS011;5571;48.110;-1.706;2023-05-10T07:45:22;15.63;;;3.60;;
11034;SDS011;5571;48.110;-1.706;2023-05-10T07:47:48;15.63;;;3.90;;
11034;SDS011;5571;48.110;-1.706;2023-05-10T07:50:14;12.63;;;3.50;;
11034;SDS011;5571;48.110;-1.706;2023-05-10T07:52:40;14.97;;;3.63;;
11034;SDS011;5571;48.110;-1.706;2023-05-10T07:55:06;18.70;;;4.33;;
11034;SDS011;5571;48.110;-1.706;2023-05-10T07:57:33;20.90;;;4.30;;
11034;SDS011;5571;48.110;-1.706;2023-05-10T07:59:59;19.57;;;3.97;;
11034;SDS011;5571;48.110;-1.706;2023-05-10T08:02:24;17.90;;;3.73;;
11034;SDS011;5571;48.110;-1.706;2023-05-10T08:04:50;20.80;;;3.90;;
11034;SDS011;5571;48.110;-1.706;2023-05-10T08:07:16;21.03;;;4.13;;
11034;SDS011;5571;48.110;-1.706;2023-05-10T08:09:42;14.30;;;4.03;;
11034;SDS011;5571;48.110;-1.706;2023-05-10T08:12:08;18.47;;;3.63;;
11034;SDS011;5571;48.110;-1.706;2023-05-10T08:14:34;19.70;;;3.77;;
11034;SDS011;5571;48.110;-1.706;2023-05-10T08:17:01;19.60;;;4.60;;
11034;SDS011;5571;48.110;-1.706;2023-05-10T08:19:28;15.30;;;4.40;;
11034;SDS011;5571;48.110;-1.706;2023-05-10T08:21:53;17.50;;;3.70;;
11034;SDS011;5571;48.110;-1.706;2023-05-10T08:24:20;15.50;;;3.60;;
11034;SDS011;5571;48.110;-1.706;2023-05-10T08:26:46;16.10;;;3.60;;
11034;SDS011;5571;48.110;-1.706;2023-05-10T08:29:12;14.97;;;3.67;;
11034;SDS011;5571;48.110;-1.706;2023-05-10T08:31:38;15.80;;;3.77;;
11034;SDS011;5571;48.110;-1.706;2023-05-10T08:34:04;18.40;;;4.07;;
11034;SDS011;5571;48.110;-1.706;2023-05-10T08:36:30;12.50;;;3.47;;
11034;SDS011;5571;48.110;-1.706;2023-05-10T08:38:57;15.80;;;3.43;;
11034;SDS011;5571;48.110;-1.706;2023-05-10T08:41:23;14.00;;;3.60;;
11034;SDS011;5571;48.110;-1.706;2023-05-10T08:43:50;16.10;;;3.43;;
11034;SDS011;5571;48.110;-1.706;2023-05-10T08:46:17;12.40;;;3.43;;
11034;SDS011;5571;48.110;-1.706;2023-05-10T08:48:44;15.30;;;2.83;;
11034;SDS011;5571;48.110;-1.706;2023-05-10T08:51:14;15.03;;;3.13;;
11034;SDS011;5571;48.110;-1.706;2023-05-10T08:53:46;15.37;;;3.73;;
11034;SDS011;5571;48.110;-1.706;2023-05-10T08:56:13;20.57;;;3.80;;
11034;SDS011;5571;48.110;-1.706;2023-05-10T08:58:40;11.87;;;2.80;;
11034;SDS011;5571;48.110;-1.706;2023-05-10T09:01:06;11.40;;;3.17;;
11034;SDS011;5571;48.110;-1.706;2023-05-10T09:03:33;13.03;;;2.80;;
11034;SDS011;5571;48.110;-1.706;2023-05-10T09:06:00;9.40;;;2.70;;
11034;SDS011;5571;48.110;-1.706;2023-05-10T09:08:26;14.00;;;3.30;;
11034;SDS011;5571;48.110;-1.706;2023-05-10T09:10:52;11.40;;;2.87;;
11034;SDS011;5571;48.110;-1.706;2023-05-10T09:13:19;9.43;;;2.90;;
11034;SDS011;5571;48.110;-1.706;2023-05-10T09:15:46;13.83;;;3.20;;
11034;SDS011;5571;48.110;-1.706;2023-05-10T09:18:13;14.37;;;3.10;;
11034;SDS011;5571;48.110;-1.706;2023-05-10T09:20:38;13.17;;;3.50;;
11034;SDS011;5571;48.110;-1.706;2023-05-10T09:23:04;10.97;;;3.30;;
11034;SDS011;5571;48.110;-1.706;2023-05-10T09:25:30;8.67;;;2.83;;
11034;SDS011;5571;48.110;-1.706;2023-05-10T09:27:58;13.27;;;3.20;;
11034;SDS011;5571;48.110;-1.706;2023-05-10T09:30:28;14.37;;;3.40;;
11034;SDS011;5571;48.110;-1.706;2023-05-10T09:32:56;10.73;;;3.10;;
11034;SDS011;5571;48.110;-1.706;2023-05-10T09:35:23;9.73;;;3.00;;
11034;SDS011;5571;48.110;-1.706;2023-05-10T09:37:50;16.10;;;3.60;;
11034;SDS011;5571;48.110;-1.706;2023-05-10T09:40:22;15.07;;;3.50;;
11034;SDS011;5571;48.110;-1.706;2023-05-10T09:42:56;11.80;;;3.10;;
11034;SDS011;5571;48.110;-1.706;2023-05-10T09:45:25;12.53;;;3.43;;
11034;SDS011;5571;48.110;-1.706;2023-05-10T09:47:52;12.70;;;3.27;;
11034;SDS011;5571;48.110;-1.706;2023-05-10T09:50:19;13.10;;;3.03;;
11034;SDS011;5571;48.110;-1.706;2023-05-10T09:52:49;13.17;;;3.67;;
11034;SDS011;5571;48.110;-1.706;2023-05-10T09:55:16;16.47;;;3.60;;
11034;SDS011;5571;48.110;-1.706;2023-05-10T09:57:43;12.30;;;3.13;;
11034;SDS011;5571;48.110;-1.706;2023-05-10T10:00:08;16.37;;;3.37;;
11034;SDS011;5571;48.110;-1.706;2023-05-10T10:02:35;10.47;;;3.30;;
11034;SDS011;5571;48.110;-1.706;2023-05-10T10:05:01;14.03;;;3.50;;
11034;SDS011;5571;48.110;-1.706;2023-05-10T10:07:30;12.00;;;3.10;;
11034;SDS011;5571;48.110;-1.706;2023-05-10T10:09:57;11.87;;;3.00;;
11034;SDS011;5571;48.110;-1.706;2023-05-10T10:12:23;13.57;;;3.03;;
11034;SDS011;5571;48.110;-1.706;2023-05-10T10:14:50;9.17;;;3.00;;
11034;SDS011;5571;48.110;-1.706;2023-05-10T10:17:16;13.57;;;5.70;;
11034;SDS011;5571;48.110;-1.706;2023-05-10T10:19:42;9.63;;;2.97;;
11034;SDS011;5571;48.110;-1.706;2023-05-10T10:22:10;10.10;;;3.00;;
11034;SDS011;5571;48.110;-1.706;2023-05-10T10:24:37;8.67;;;3.17;;
11034;SDS011;5571;48.110;-1.706;2023-05-10T10:27:18;10.07;;;2.90;;
11034;SDS011;5571;48.110;-1.706;2023-05-10T10:35:37;10.20;;;2.77;;
11034;SDS011;5571;48.110;-1.706;2023-05-10T10:38:03;8.20;;;2.60;;
11034;SDS011;5571;48.110;-1.706;2023-05-10T10:40:30;7.27;;;2.97;;
11034;SDS011;5571;48.110;-1.706;2023-05-10T10:42:57;13.13;;;3.20;;
11034;SDS011;5571;48.110;-1.706;2023-05-10T10:45:24;8.30;;;2.33;;
11034;SDS011;5571;48.110;-1.706;2023-05-10T10:48:20;5.10;;;2.13;;
11034;SDS011;5571;48.110;-1.706;2023-05-10T10:50:46;9.10;;;2.57;;
11034;SDS011;5571;48.110;-1.706;2023-05-10T10:53:11;7.40;;;2.30;;
11034;SDS011;5571;48.110;-1.706;2023-05-10T10:55:45;8.33;;;2.40;;
11034;SDS011;5571;48.110;-1.706;2023-05-10T10:58:15;5.97;;;1.90;;
11034;SDS011;5571;48.110;-1.706;2023-05-10T11:03:41;5.37;;;1.80;;
11034;SDS011;5571;48.110;-1.706;2023-05-10T11:06:32;5.60;;;2.13;;
11034;SDS011;5571;48.110;-1.706;2023-05-10T11:08:59;4.50;;;1.80;;
11034;SDS011;5571;48.110;-1.706;2023-05-10T11:11:35;5.63;;;1.80;;
11034;SDS011;5571;48.110;-1.706;2023-05-10T11:14:04;6.13;;;1.83;;
11034;SDS011;5571;48.110;-1.706;2023-05-10T11:16:41;5.40;;;1.80;;
11034;SDS011;5571;48.110;-1.706;2023-05-10T11:19:09;6.90;;;2.07;;
11034;SDS011;5571;48.110;-1.706;2023-05-10T11:21:49;5.43;;;1.77;;
11034;SDS011;5571;48.110;-1.706;2023-05-10T11:24:20;5.73;;;2.10;;
11034;SDS011;5571;48.110;-1.706;2023-05-10T11:26:49;5.13;;;2.07;;
11034;SDS011;5571;48.110;-1.706;2023-05-10T11:29:16;6.50;;;2.30;;
11034;SDS011;5571;48.110;-1.706;2023-05-10T11:31:43;7.57;;;2.53;;
11034;SDS011;5571;48.110;-1.706;2023-05-10T11:34:10;7.33;;;2.00;;
11034;SDS011;5571;48.110;-1.706;2023-05-10T11:36:36;3.10;;;1.63;;
11034;SDS011;5571;48.110;-1.706;2023-05-10T11:39:02;3.13;;;1.40;;
11034;SDS011;5571;48.110;-1.706;2023-05-10T11:41:29;4.83;;;1.27;;
11034;SDS011;5571;48.110;-1.706;2023-05-10T11:43:55;2.73;;;1.23;;
11034;SDS011;5571;48.110;-1.706;2023-05-10T11:46:23;3.30;;;1.20;;
11034;SDS011;5571;48.110;-1.706;2023-05-10T11:48:52;2.70;;;1.10;;
11034;SDS011;5571;48.110;-1.706;2023-05-10T11:51:20;2.63;;;1.50;;
11034;SDS011;5571;48.110;-1.706;2023-05-10T11:53:46;7.57;;;2.07;;
11034;SDS011;5571;48.110;-1.706;2023-05-10T11:56:12;2.40;;;1.83;;
11034;SDS011;5571;48.110;-1.706;2023-05-10T11:58:38;6.03;;;2.20;;
11034;SDS011;5571;48.110;-1.706;2023-05-10T12:01:05;7.70;;;2.97;;
11034;SDS011;5571;48.110;-1.706;2023-05-10T12:03:33;7.67;;;2.90;;
11034;SDS011;5571;48.110;-1.706;2023-05-10T12:05:59;6.13;;;2.57;;
11034;SDS011;5571;48.110;-1.706;2023-05-10T12:08:28;4.57;;;2.83;;
11034;SDS011;5571;48.110;-1.706;2023-05-10T12:11:05;6.63;;;2.97;;
11034;SDS011;5571;48.110;-1.706;2023-05-10T12:13:36;6.20;;;1.67;;
11034;SDS011;5571;48.110;-1.706;2023-05-10T12:16:15;5.00;;;1.57;;
11034;SDS011;5571;48.110;-1.706;2023-05-10T12:18:42;6.00;;;1.60;;
11034;SDS011;5571;48.110;-1.706;2023-05-10T12:21:09;2.33;;;1.53;;
11034;SDS011;5571;48.110;-1.706;2023-05-10T12:23:38;4.77;;;1.40;;
11034;SDS011;5571;48.110;-1.706;2023-05-10T12:26:04;5.43;;;1.80;;
11034;SDS011;5571;48.110;-1.706;2023-05-10T12:28:31;6.17;;;1.60;;
11034;SDS011;5571;48.110;-1.706;2023-05-10T12:30:58;4.07;;;1.90;;
11034;SDS011;5571;48.110;-1.706;2023-05-10T12:33:24;6.60;;;2.43;;
11034;SDS011;5571;48.110;-1.706;2023-05-10T12:35:51;6.57;;;2.10;;
11034;SDS011;5571;48.110;-1.706;2023-05-10T12:40:57;4.70;;;1.83;;
11034;SDS011;5571;48.110;-1.706;2023-05-10T12:43:24;4.20;;;1.77;;
11034;SDS011;5571;48.110;-1.706;2023-05-10T12:45:50;6.67;;;2.30;;
11034;SDS011;5571;48.110;-1.706;2023-05-10T12:48:17;6.90;;;2.80;;
11034;SDS011;5571;48.110;-1.706;2023-05-10T12:50:42;7.30;;;2.43;;
11034;SDS011;5571;48.110;-1.706;2023-05-10T12:53:08;5.67;;;2.47;;
11034;SDS011;5571;48.110;-1.706;2023-05-10T12:55:34;9.03;;;2.90;;
11034;SDS011;5571;48.110;-1.706;2023-05-10T12:58:00;10.97;;;2.80;;
11034;SDS011;5571;48.110;-1.706;2023-05-10T13:00:25;7.10;;;2.23;;
11034;SDS011;5571;48.110;-1.706;2023-05-10T13:02:51;9.43;;;2.40;;
11034;SDS011;5571;48.110;-1.706;2023-05-10T13:05:17;6.70;;;2.30;;
11034;SDS011;5571;48.110;-1.706;2023-05-10T13:07:43;6.20;;;2.20;;
11034;SDS011;5571;48.110;-1.706;2023-05-10T13:10:09;6.10;;;2.17;;
11034;SDS011;5571;48.110;-1.706;2023-05-10T13:12:35;7.67;;;2.13;;
11034;SDS011;5571;48.110;-1.706;2023-05-10T13:15:01;11.20;;;5.03;;
11034;SDS011;5571;48.110;-1.706;2023-05-10T13:17:28;8.30;;;2.47;;
11034;SDS011;5571;48.110;-1.706;2023-05-10T13:19:54;6.07;;;2.17;;
11034;SDS011;5571;48.110;-1.706;2023-05-10T13:22:19;7.03;;;2.40;;
11034;SDS011;5571;48.110;-1.706;2023-05-10T13:24:45;6.17;;;2.10;;
11034;SDS011;5571;48.110;-1.706;2023-05-10T13:27:10;5.07;;;2.10;;
11034;SDS011;5571;48.110;-1.706;2023-05-10T13:29:36;7.77;;;2.20;;
11034;SDS011;5571;48.110;-1.706;2023-05-10T13:32:02;6.63;;;2.07;;
11034;SDS011;5571;48.110;-1.706;2023-05-10T13:34:28;4.50;;;2.00;;
11034;SDS011;5571;48.110;-1.706;2023-05-10T13:36:53;5.70;;;1.83;;
11034;SDS011;5571;48.110;-1.706;2023-05-10T13:39:20;5.23;;;1.60;;
11034;SDS011;5571;48.110;-1.706;2023-05-10T13:41:46;4.83;;;2.00;;
11034;SDS011;5571;48.110;-1.706;2023-05-10T13:44:12;4.07;;;1.60;;
11034;SDS011;5571;48.110;-1.706;2023-05-10T13:46:39;7.70;;;1.67;;
11034;SDS011;5571;48.110;-1.706;2023-05-10T13:49:06;3.57;;;1.50;;
11034;SDS011;5571;48.110;-1.706;2023-05-10T13:51:33;4.50;;;1.37;;
11034;SDS011;5571;48.110;-1.706;2023-05-10T13:53:59;6.50;;;1.47;;
11034;SDS011;5571;48.110;-1.706;2023-05-10T13:56:24;4.60;;;1.57;;
11034;SDS011;5571;48.110;-1.706;2023-05-10T13:58:50;4.67;;;1.63;;
11034;SDS011;5571;48.110;-1.706;2023-05-10T14:01:16;4.60;;;1.67;;
11034;SDS011;5571;48.110;-1.706;2023-05-10T14:03:41;4.53;;;1.77;;
11034;SDS011;5571;48.110;-1.706;2023-05-10T14:06:07;6.93;;;1.80;;
11034;SDS011;5571;48.110;-1.706;2023-05-10T14:08:33;6.43;;;1.83;;
11034;SDS011;5571;48.110;-1.706;2023-05-10T14:10:59;5.27;;;1.33;;
11034;SDS011;5571;48.110;-1.706;2023-05-10T14:13:25;4.57;;;1.40;;
11034;SDS011;5571;48.110;-1.706;2023-05-10T14:15:52;7.23;;;2.00;;
11034;SDS011;5571;48.110;-1.706;2023-05-10T14:18:18;6.50;;;1.80;;
11034;SDS011;5571;48.110;-1.706;2023-05-10T14:20:44;9.37;;;1.80;;
11034;SDS011;5571;48.110;-1.706;2023-05-10T14:23:10;7.33;;;1.77;;
11034;SDS011;5571;48.110;-1.706;2023-05-10T14:25:35;5.60;;;1.73;;
11034;SDS011;5571;48.110;-1.706;2023-05-10T14:28:01;6.27;;;1.87;;
11034;SDS011;5571;48.110;-1.706;2023-05-10T14:30:26;5.03;;;1.90;;
11034;SDS011;5571;48.110;-1.706;2023-05-10T14:32:52;10.03;;;2.20;;
11034;SDS011;5571;48.110;-1.706;2023-05-10T14:35:19;8.40;;;2.10;;
11034;SDS011;5571;48.110;-1.706;2023-05-10T14:37:44;3.80;;;1.50;;
11034;SDS011;5571;48.110;-1.706;2023-05-10T14:40:10;5.80;;;2.17;;
11034;SDS011;5571;48.110;-1.706;2023-05-10T14:42:37;6.33;;;1.90;;
11034;SDS011;5571;48.110;-1.706;2023-05-10T14:45:03;6.03;;;1.80;;
11034;SDS011;5571;48.110;-1.706;2023-05-10T14:47:29;4.50;;;1.80;;
11034;SDS011;5571;48.110;-1.706;2023-05-10T14:49:55;4.60;;;1.90;;
11034;SDS011;5571;48.110;-1.706;2023-05-10T14:52:20;5.63;;;1.87;;
11034;SDS011;5571;48.110;-1.706;2023-05-10T14:54:46;7.47;;;2.13;;
11034;SDS011;5571;48.110;-1.706;2023-05-10T14:57:11;6.90;;;2.40;;
11034;SDS011;5571;48.110;-1.706;2023-05-10T14:59:37;8.27;;;2.13;;
11034;SDS011;5571;48.110;-1.706;2023-05-10T15:02:03;6.40;;;2.27;;
11034;SDS011;5571;48.110;-1.706;2023-05-10T15:04:29;6.80;;;2.47;;
11034;SDS011;5571;48.110;-1.706;2023-05-10T15:06:55;5.00;;;2.57;;